Time;durP1;ratioP1;P1;durP2;ratioP2;P2;SDS_P1;SDS_P2;PMS_P1;PMS_P2;Temp;Humidity;BMP_temperature;BMP_pressure;BME280_temperature;BME280_humidity;BME280_pressure;Samples;Min_cycle;Max_cycle;Signal;HPM_P1;HPM_P2
2023/04/19 00:02:00;;;;;;;10.50;7.20;;;;;;;10.14;65.52;100426.51;104126;1258;138476;-73
2023/04/19 00:04:24;;;;;;;8.80;7.20;;;;;;;10.14;65.55;100424.27;104299;1257;96101;-73
2023/04/19 00:06:52;;;;;;;8.50;6.60;;;;;;;10.11;65.63;100421.23;104256;1257;107581;-73
2023/04/19 00:09:15;;;;;;;8.80;6.90;;;;;;;10.07;65.43;100422.38;104138;1257;139320;-73
2023/04/19 00:11:39;;;;;;;8.90;6.40;;;;;;;10.04;65.44;100422.45;104271;1257;113195;-72
2023/04/19 00:14:04;;;;;;;;;;;;;;;10.03;65.54;100418.30;104171;1257;139390;-73
2023/04/19 00:16:27;;;;;;;7.90;5.70;;;;;;;10.02;65.68;100414.17;104262;1257;96158;-73
2023/04/19 00:18:51;;;;;;;8.10;5.80;;;;;;;9.99;65.84;100413.21;104241;1257;106705;-73
2023/04/19 00:21:15;;;;;;;6.30;5.50;;;;;;;9.95;65.73;100415.41;104142;1257;138536;-73
2023/04/19 00:23:39;;;;;;;7.60;5.50;;;;;;;9.89;65.94;100413.31;104283;1257;112087;-75
2023/04/19 00:26:03;;;;;;;9.60;5.50;;;;;;;9.83;66.17;100411.38;104134;1258;138352;-74
2023/04/19 00:28:27;;;;;;;7.40;5.80;;;;;;;9.77;66.53;100407.58;104315;1257;96039;-77
2023/04/19 00:30:53;;;;;;;7.00;5.00;;;;;;;9.69;66.55;100406.36;104305;1257;106935;-78
2023/04/19 00:33:16;;;;;;;7.20;5.50;;;;;;;9.62;66.70;100405.84;104153;1258;138213;-76
2023/04/19 00:35:41;;;;;;;8.60;5.40;;;;;;;9.55;67.03;100411.42;104308;1257;110911;-77
2023/04/19 00:38:04;;;;;;;7.60;5.70;;;;;;;9.49;67.32;100410.50;104135;1257;139009;-77
2023/04/19 00:40:28;;;;;;;9.30;5.50;;;;;;;9.44;67.79;100406.66;104285;1257;96892;-76
2023/04/19 00:42:51;;;;;;;8.30;6.00;;;;;;;9.37;68.16;100405.96;104282;1257;107244;-77
2023/04/19 00:45:15;;;;;;;7.20;5.90;;;;;;;9.33;68.62;100402.23;104102;1257;139020;-77
2023/04/19 00:47:59;;;;;;;10.80;6.50;;;;;;;9.30;69.24;100399.54;103959;1263;112300;-77
2023/04/19 00:50:44;;;;;;;10.40;7.00;;;;;;;9.28;69.79;100397.34;103893;1261;139057;-77
2023/04/19 00:53:08;;;;;;;9.60;6.90;;;;;;;9.26;70.27;100392.69;104064;1262;95960;-77
2023/04/19 00:55:32;;;;;;;9.20;7.60;;;;;;;9.24;71.00;100385.64;103937;1262;138582;-77
2023/04/19 00:57:56;;;;;;;9.70;7.80;;;;;;;9.19;71.35;100387.52;104018;1266;96333;-77
2023/04/19 01:00:20;;;;;;;10.40;8.10;;;;;;;9.13;71.96;100378.61;104006;1262;111118;-76
2023/04/19 01:02:47;;;;;;;9.50;7.80;;;;;;;9.06;72.27;100379.13;103897;1261;138720;-76
2023/04/19 01:05:19;;;;;;;8.90;8.00;;;;;;;9.02;72.45;100376.63;104059;1261;96311;-76
2023/04/19 01:07:45;;;;;;;12.70;7.90;;;;;;;8.97;73.31;100369.28;103924;1262;138674;-77
2023/04/19 01:10:11;;;;;;;10.50;8.10;;;;;;;8.89;73.17;100368.77;104060;1261;95940;-77
2023/04/19 01:12:55;;;;;;;9.80;7.20;;;;;;;8.84;73.52;100366.14;104126;1261;111364;-77
2023/04/19 01:15:22;;;;;;;8.80;7.90;;;;;;;8.80;73.67;100363.11;103240;1262;138171;-76
2023/04/19 01:17:49;;;;;;;10.90;8.20;;;;;;;8.76;73.92;100361.43;103661;1262;97360;-77
2023/04/19 01:20:13;;;;;;;12.50;7.90;;;;;;;8.73;74.33;100357.52;102728;1263;138204;-76
2023/04/19 01:22:40;;;;;;;11.90;8.10;;;;;;;8.70;74.28;100360.89;103254;1257;98010;-75
2023/04/19 01:25:21;;;;;;;10.70;8.40;;;;;;;8.68;74.44;100358.70;102853;1257;138909;-74
2023/04/19 01:27:45;;;;;;;9.70;7.90;;;;;;;8.67;74.63;100352.64;102924;1258;106879;-75
2023/04/19 01:30:28;;;;;;;10.70;8.20;;;;;;;8.66;74.66;100353.55;102857;1257;97757;-74
2023/04/19 01:33:12;;;;;;;9.80;8.20;;;;;;;8.64;74.80;100349.45;102789;1257;138161;-76
2023/04/19 01:35:56;;;;;;;9.10;8.00;;;;;;;8.61;75.02;100343.76;103441;1258;97740;-75
2023/04/19 01:38:40;;;;;;;10.00;7.90;;;;;;;8.60;75.07;100347.08;102854;1257;138129;-75
2023/04/19 01:41:25;;;;;;;10.40;8.40;;;;;;;8.59;75.21;100343.29;102923;1257;107386;-75
2023/04/19 01:44:10;;;;;;;12.90;8.90;;;;;;;8.56;75.27;100342.16;102788;1260;138326;-75
2023/04/19 01:46:54;;;;;;;11.40;8.60;;;;;;;8.51;75.32;100341.92;103523;1257;108274;-75
2023/04/19 01:49:38;;;;;;;11.60;8.20;;;;;;;8.46;75.54;100341.16;102959;1264;138601;-76
2023/04/19 01:52:22;;;;;;;11.70;8.70;;;;;;;8.42;75.53;100345.73;103975;1264;113373;-76
2023/04/19 01:54:55;;;;;;;11.90;9.10;;;;;;;8.43;75.91;100343.28;102800;1263;107708;-75
2023/04/19 01:57:27;;;;;;;10.70;8.70;;;;;;;8.43;76.00;100342.94;103844;1264;138170;-76
2023/04/19 02:00:13;;;;;;;13.10;9.40;;;;;;;8.43;76.36;100338.61;103980;1262;110303;-76
2023/04/19 02:02:37;;;;;;;11.20;9.30;;;;;;;8.44;76.43;100336.70;102986;1262;138424;-76
2023/04/19 02:05:18;;;;;;;10.60;8.70;;;;;;;8.44;76.44;100336.35;103984;1262;109947;-76
2023/04/19 02:08:02;;;;;;;9.30;8.30;;;;;;;8.43;76.87;100332.36;102411;1267;139277;-74
2023/04/19 02:10:46;;;;;;;10.20;8.30;;;;;;;8.42;76.91;100336.20;103585;1269;96893;-76
2023/04/19 02:13:09;;;;;;;11.20;9.00;;;;;;;8.41;76.94;100332.06;103512;1270;107371;-76
2023/04/19 02:15:37;;;;;;;11.40;8.60;;;;;;;8.41;76.98;100331.02;102519;1270;139872;-75
2023/04/19 02:18:12;;;;;;;10.20;8.40;;;;;;;8.42;77.09;100326.67;102970;1269;112263;-76
2023/04/19 02:20:45;;;;;;;10.70;8.70;;;;;;;8.43;77.34;100325.27;103589;1264;138599;-76
2023/04/19 02:23:30;;;;;;;11.60;8.70;;;;;;;8.44;77.54;100326.81;103689;1264;97797;-76
2023/04/19 02:25:53;;;;;;;10.70;8.60;;;;;;;8.46;77.75;100324.52;103083;1263;138375;-75
2023/04/19 02:28:38;;;;;;;14.90;9.30;;;;;;;8.50;77.72;100325.66;103911;1264;96282;-76
2023/04/19 02:31:15;;;;;;;11.40;9.20;;;;;;;8.50;77.71;100319.77;103939;1264;111366;-77
2023/04/19 02:33:59;;;;;;;12.80;9.30;;;;;;;8.51;77.70;100318.88;103918;1264;106857;-76
2023/04/19 02:36:23;;;;;;;11.00;9.00;;;;;;;8.48;77.70;100313.73;103771;1263;96411;-76
2023/04/19 02:38:51;;;;;;;12.50;9.30;;;;;;;8.44;77.72;100313.47;103745;1264;138190;-76
2023/04/19 02:41:16;;;;;;;10.30;9.20;;;;;;;8.45;77.76;100312.77;104024;1257;97278;-76
2023/04/19 02:43:53;;;;;;;13.20;9.40;;;;;;;8.47;77.97;100309.42;104199;1257;138652;-76
2023/04/19 02:46:35;;;;;;;11.00;9.00;;;;;;;8.49;78.03;100309.91;102885;1260;108315;-75
2023/04/19 02:49:20;;;;;;;12.30;9.60;;;;;;;8.49;77.92;100306.09;102968;1258;138428;-75
2023/04/19 02:51:54;;;;;;;11.20;10.00;;;;;;;8.50;78.01;100300.70;104338;1258;107141;-76
2023/04/19 02:54:28;;;;;;;11.30;10.00;;;;;;;8.48;77.91;100297.44;104333;1257;96828;-76
2023/04/19 02:56:56;;;;;;;13.60;10.10;;;;;;;8.46;77.82;100292.48;103298;1257;138611;-75
2023/04/19 02:59:33;;;;;;;14.60;10.30;;;;;;;8.42;77.81;100287.85;104288;1257;108580;-76
2023/04/19 03:02:17;;;;;;;12.90;9.50;;;;;;;8.39;78.01;100285.86;104224;1260;138654;-75
2023/04/19 03:04:46;;;;;;;11.10;9.40;;;;;;;8.36;78.24;100284.36;103844;1257;107095;-76
2023/04/19 03:07:30;;;;;;;12.20;9.10;;;;;;;8.36;78.32;100273.63;104188;1257;138448;-76
2023/04/19 03:10:13;;;;;;;11.10;9.30;;;;;;;8.37;78.19;100278.78;104314;1257;111288;-76
2023/04/19 03:12:39;;;;;;;12.50;9.60;;;;;;;8.37;78.30;100272.20;102892;1257;107708;-75
2023/04/19 03:15:17;;;;;;;11.00;9.50;;;;;;;8.37;78.42;100270.15;102879;1258;138498;-75
2023/04/19 03:18:01;;;;;;;11.30;9.50;;;;;;;8.32;78.42;100270.41;104336;1257;108537;-75
2023/04/19 03:20:27;;;;;;;12.40;10.70;;;;;;;8.33;78.63;100271.23;104157;1257;139151;-75
2023/04/19 03:22:52;;;;;;;14.30;10.40;;;;;;;8.34;78.65;100274.02;103644;1257;111966;-75
2023/04/19 03:25:36;;;;;;;9.30;8.40;;;;;;;8.32;78.60;100272.48;104215;1257;139602;-75
2023/04/19 03:28:11;;;;;;;10.10;8.60;;;;;;;8.30;78.68;100267.84;104224;1257;95971;-76
2023/04/19 03:30:54;;;;;;;10.20;8.40;;;;;;;8.31;78.68;100265.75;103438;1259;107796;-76
2023/04/19 03:33:38;;;;;;;12.10;9.30;;;;;;;8.31;78.65;100264.37;103040;1257;138190;-76
2023/04/19 03:36:22;;;;;;;13.10;9.10;;;;;;;8.29;78.57;100265.27;104346;1257;112204;-76
2023/04/19 03:38:51;;;;;;;10.30;8.70;;;;;;;8.25;78.53;100260.84;104167;1259;139025;-77
2023/04/19 03:41:20;;;;;;;11.40;9.80;;;;;;;8.22;78.57;100261.60;104300;1259;95698;-77
2023/04/19 03:43:53;;;;;;;11.70;9.10;;;;;;;8.19;78.72;100259.41;104169;1258;138907;-77
2023/04/19 03:46:20;;;;;;;12.50;9.10;;;;;;;8.18;78.78;100256.84;104280;1256;95879;-77
2023/04/19 03:48:47;;;;;;;12.70;8.90;;;;;;;8.17;78.77;100250.98;104322;1257;111221;-78
2023/04/19 03:51:12;;;;;;;12.00;8.50;;;;;;;8.16;78.56;100248.94;103889;1257;138448;-76
2023/04/19 03:53:56;;;;;;;11.90;8.90;;;;;;;8.13;78.67;100247.27;102914;1257;97851;-76
2023/04/19 03:56:23;;;;;;;14.50;9.10;;;;;;;8.12;78.63;100245.58;103439;1257;138287;-77
2023/04/19 03:59:03;;;;;;;10.90;8.70;;;;;;;8.09;78.75;100238.17;104324;1257;95726;-77
2023/04/19 04:01:32;;;;;;;12.50;9.20;;;;;;;8.09;78.84;100237.16;103679;1257;138354;-76
2023/04/19 04:03:58;;;;;;;13.30;8.80;;;;;;;8.07;78.86;100235.27;104286;1259;106773;-76
2023/04/19 04:06:37;;;;;;;11.10;9.20;;;;;;;8.06;78.98;100235.44;103369;1260;97791;-76
2023/04/19 04:09:21;;;;;;;11.40;9.30;;;;;;;8.02;79.13;100229.15;102852;1260;138269;-76
2023/04/19 04:12:06;;;;;;;12.10;9.70;;;;;;;7.99;79.25;100234.95;103930;1258;96341;-76
2023/04/19 04:14:50;;;;;;;11.30;9.70;;;;;;;7.94;79.55;100231.77;104229;1258;138381;-77
2023/04/19 04:17:17;;;;;;;13.40;10.50;;;;;;;7.93;79.50;100234.40;104248;1258;107676;-77
2023/04/19 04:19:51;;;;;;;11.80;9.90;;;;;;;7.93;79.89;100231.11;104221;1258;140201;-77
2023/04/19 04:22:35;;;;;;;12.00;9.90;;;;;;;7.88;79.84;100232.73;104318;1257;108806;-77
2023/04/19 04:25:02;;;;;;;14.30;10.50;;;;;;;7.90;79.94;100227.86;104311;1257;95593;-77
2023/04/19 04:27:33;;;;;;;13.10;10.40;;;;;;;7.93;80.23;100231.27;103797;1258;138695;-76
2023/04/19 04:30:17;;;;;;;15.20;10.50;;;;;;;7.94;80.23;100229.00;104179;1257;108351;-77
2023/04/19 04:33:01;;;;;;;16.20;9.20;;;;;;;7.92;80.27;100227.84;104176;1257;138720;-77
2023/04/19 04:35:46;;;;;;;10.70;9.30;;;;;;;7.91;80.44;100228.38;104091;1257;108163;-76
2023/04/19 04:38:14;;;;;;;10.60;9.10;;;;;;;7.90;80.54;100230.80;102751;1257;138364;-75
2023/04/19 04:40:52;;;;;;;11.20;9.60;;;;;;;7.86;80.46;100227.75;103625;1259;111064;-74
2023/04/19 04:43:37;;;;;;;11.70;9.60;;;;;;;7.83;80.82;100230.42;103068;1259;138504;-75
2023/04/19 04:46:21;;;;;;;11.60;9.00;;;;;;;7.81;81.03;100228.90;102947;1258;97708;-72
2023/04/19 04:49:06;;;;;;;11.60;9.50;;;;;;;7.79;81.07;100230.70;104299;1257;107936;-81
2023/04/19 04:51:50;;;;;;;12.10;9.20;;;;;;;7.77;81.32;100226.77;104034;1262;95730;-83
2023/04/19 04:54:17;;;;;;;9.70;8.60;;;;;;;7.75;81.58;100226.27;104022;1261;111203;-83
2023/04/19 04:56:51;;;;;;;12.70;9.30;;;;;;;7.73;81.37;100227.02;103932;1265;138757;-80
2023/04/19 04:59:35;;;;;;;10.00;9.00;;;;;;;7.73;81.58;100226.67;103806;1268;96321;-80
2023/04/19 05:02:02;;;;;;;9.70;8.70;;;;;;;7.75;81.76;100223.16;103382;1267;138902;-77
2023/04/19 05:04:39;;;;;;;13.00;9.50;;;;;;;7.77;81.78;100219.48;103821;1267;95944;-80
2023/04/19 05:07:23;;;;;;;12.10;9.00;;;;;;;7.79;81.83;100213.56;103817;1265;111941;-80
2023/04/19 05:09:47;;;;;;;11.00;9.30;;;;;;;7.80;82.04;100210.77;103536;1267;107640;-83
2023/04/19 05:12:14;;;;;;;12.20;9.10;;;;;;;7.81;81.78;100213.84;103359;1266;96936;-82
2023/04/19 05:14:58;;;;;;;10.30;9.20;;;;;;;7.82;82.02;100213.14;102160;1271;140873;-81
2023/04/19 05:17:23;;;;;;;14.00;10.50;;;;;;;7.83;82.10;100208.95;98257;1273;5369589;-81
2023/04/19 05:20:09;;;;;;;13.00;11.10;;;;;;;7.82;82.03;100208.46;102106;1271;138741;-84
2023/04/19 05:22:57;;;;;;;12.30;10.20;;;;;;;7.79;82.11;100207.66;102457;1265;98300;-81
2023/04/19 05:25:31;;;;;;;11.70;10.40;;;;;;;7.78;82.24;100204.56;102281;1265;139471;-75
2023/04/19 05:27:58;;;;;;;13.40;10.80;;;;;;;7.78;82.22;100209.61;102721;1265;107568;-80
2023/04/19 05:30:29;;;;;;;13.40;11.20;;;;;;;7.77;82.46;100209.80;102583;1262;97866;-79
2023/04/19 05:33:02;;;;;;;15.90;12.50;;;;;;;7.77;82.54;100208.23;102995;1267;138525;-84
2023/04/19 05:35:47;;;;;;;16.90;13.30;;;;;;;7.79;82.74;100206.98;102622;1262;97808;-77
2023/04/19 05:38:11;;;;;;;18.20;13.40;;;;;;;7.78;82.72;100210.45;102393;1264;138035;-73
2023/04/19 05:40:34;;;;;;;18.40;13.20;;;;;;;7.76;82.62;100204.96;102548;1267;108511;-77
2023/04/19 05:43:20;;;;;;;30.50;13.20;;;;;;;7.77;82.70;100207.72;103981;1263;96040;-76
2023/04/19 05:45:44;;;;;;;15.00;12.20;;;;;;;7.80;83.20;100207.13;103942;1258;139879;-74
2023/04/19 05:48:16;;;;;;;15.30;11.70;;;;;;;7.82;82.95;100207.94;103014;1259;97799;-73
2023/04/19 05:51:00;;;;;;;16.80;12.70;;;;;;;7.81;82.99;100201.20;102842;1259;138420;-72
2023/04/19 05:54:03;;;;;;;15.20;12.10;;;;;;;7.81;82.84;100194.13;102574;1262;107779;-73
2023/04/19 05:56:29;;;;;;;16.10;12.40;;;;;;;7.77;82.77;100192.46;102555;1262;138776;-73
2023/04/19 05:58:55;;;;;;;14.50;12.20;;;;;;;7.75;82.93;100192.01;103235;1264;107655;-73
2023/04/19 06:01:39;;;;;;;14.70;12.20;;;;;;;7.74;83.03;100195.16;102668;1258;138713;-71
2023/04/19 06:04:23;;;;;;;14.10;12.00;;;;;;;7.71;83.22;100195.37;103591;1258;110509;-73
2023/04/19 06:06:51;;;;;;;13.40;11.60;;;;;;;7.70;83.15;100193.48;102792;1258;107326;-75
2023/04/19 06:09:35;;;;;;;14.70;11.80;;;;;;;7.67;83.38;100195.27;102796;1259;138372;-74
2023/04/19 06:12:19;;;;;;;13.20;11.80;;;;;;;7.64;83.40;100191.73;103710;1258;106955;-74
2023/04/19 06:14:43;;;;;;;14.20;11.60;;;;;;;7.64;83.43;100185.67;102777;1258;138928;-73
2023/04/19 06:17:23;;;;;;;14.20;11.20;;;;;;;7.61;83.48;100183.81;102800;1259;112068;-74
2023/04/19 06:20:09;;;;;;;15.10;11.60;;;;;;;7.59;83.91;100184.23;103118;1258;138654;-74
2023/04/19 06:22:53;;;;;;;15.20;11.30;;;;;;;7.60;83.78;100181.44;103249;1256;97793;-75
2023/04/19 06:25:37;;;;;;;12.50;11.10;;;;;;;7.59;83.86;100181.11;102745;1257;138555;-72
2023/04/19 06:28:21;;;;;;;14.90;11.20;;;;;;;7.59;83.87;100172.79;102948;1258;97789;-73
2023/04/19 06:30:45;;;;;;;13.90;12.00;;;;;;;7.61;84.13;100176.21;102987;1261;111834;-73
2023/04/19 06:33:12;;;;;;;13.40;11.70;;;;;;;7.62;84.00;100179.30;102740;1258;140116;-72
2023/04/19 06:35:38;;;;;;;14.80;12.40;;;;;;;7.62;83.92;100180.19;103121;1259;98320;-74
2023/04/19 06:38:13;;;;;;;15.00;12.40;;;;;;;7.61;83.94;100180.38;102771;1257;138979;-72
2023/04/19 06:40:39;;;;;;;16.50;12.90;;;;;;;7.62;83.92;100176.72;102900;1260;97905;-73
2023/04/19 06:43:03;;;;;;;15.60;13.00;;;;;;;7.60;83.91;100174.84;102948;1258;111489;-73
2023/04/19 06:45:32;;;;;;;15.30;12.90;;;;;;;7.62;84.25;100179.64;102795;1261;138531;-73
2023/04/19 06:48:16;;;;;;;19.50;14.20;;;;;;;7.66;84.28;100177.65;103051;1259;97678;-73
2023/04/19 06:50:50;;;;;;;19.80;15.30;;;;;;;7.70;84.26;100179.11;102703;1256;138312;-74
2023/04/19 06:53:34;;;;;;;20.20;15.30;;;;;;;7.76;84.38;100176.94;104315;1259;95896;-72
2023/04/19 06:56:00;;;;;;;19.90;15.60;;;;;;;7.81;84.26;100181.30;104241;1257;138488;-77
2023/04/19 06:58:31;;;;;;;21.80;16.00;;;;;;;7.87;84.35;100183.09;103678;1261;106766;-77
2023/04/19 07:01:18;;;;;;;18.80;14.70;;;;;;;7.97;84.50;100184.09;102978;1257;97703;-75
2023/04/19 07:04:01;;;;;;;19.90;16.30;;;;;;;8.05;84.31;100185.61;104294;1257;109960;-75
2023/04/19 07:06:26;;;;;;;20.40;16.80;;;;;;;8.14;84.47;100187.14;104281;1259;96002;-77
2023/04/19 07:08:54;;;;;;;24.80;17.50;;;;;;;8.27;84.41;100186.68;104206;1257;138425;-78
2023/04/19 07:11:18;;;;;;;20.00;16.90;;;;;;;8.39;84.41;100187.11;104244;1257;108196;-79
2023/04/19 07:13:47;;;;;;;24.20;18.50;;;;;;;8.52;84.41;100186.45;104152;1257;138904;-79
2023/04/19 07:16:12;;;;;;;21.60;17.80;;;;;;;8.66;84.31;100184.89;103223;1257;108289;-77
2023/04/19 07:18:38;;;;;;;24.30;18.80;;;;;;;8.82;84.17;100183.61;102872;1259;97962;-77
2023/04/19 07:21:24;;;;;;;25.40;19.70;;;;;;;8.97;83.82;100187.38;102720;1261;138507;-77
2023/04/19 07:23:56;;;;;;;22.60;17.60;;;;;;;9.06;83.49;100184.00;102796;1261;107731;-77
2023/04/19 07:26:33;;;;;;;21.10;17.10;;;;;;;9.20;83.40;100181.90;102677;1261;139667;-77
2023/04/19 07:29:18;;;;;;;26.10;16.50;;;;;;;9.30;83.11;100175.55;103967;1261;108144;-78
2023/04/19 07:31:41;;;;;;;22.40;16.40;;;;;;;9.36;83.00;100177.29;103855;1261;139019;-78
2023/04/19 07:34:05;;;;;;;18.40;15.90;;;;;;;9.40;82.61;100180.30;104002;1261;109968;-79
2023/04/19 07:36:40;;;;;;;23.20;14.70;;;;;;;9.41;82.39;100181.48;102651;1262;106886;-77
2023/04/19 07:39:04;;;;;;;17.30;14.60;;;;;;;9.42;82.16;100182.84;102452;1267;138824;-77
2023/04/19 07:41:28;;;;;;;39.30;27.10;;;;;;;9.41;82.07;100182.17;102666;1266;107497;-79
2023/04/19 07:44:02;;;;;;;21.50;17.90;;;;;;;9.42;81.77;100183.02;102454;1261;138943;-77
2023/04/19 07:46:46;;;;;;;19.70;15.00;;;;;;;9.40;81.48;100182.02;102586;1262;111558;-78
2023/04/19 07:49:10;;;;;;;15.90;12.90;;;;;;;9.39;81.36;100183.43;102487;1265;108500;-80
2023/04/19 07:51:54;;;;;;;17.30;14.30;;;;;;;9.40;81.28;100180.30;102625;1267;97821;-84
2023/04/19 07:54:38;;;;;;;18.10;14.20;;;;;;;9.43;81.37;100184.73;103980;1262;109930;-80
2023/04/19 07:57:02;;;;;;;15.20;13.20;;;;;;;9.44;81.26;100184.01;103896;1266;139488;-81
2023/04/19 07:59:25;;;;;;;16.30;13.20;;;;;;;9.45;81.22;100189.85;103448;1262;112025;-80
2023/04/19 08:02:06;;;;;;;16.70;13.20;;;;;;;9.46;81.15;100190.36;102701;1259;138845;-81
2023/04/19 08:04:50;;;;;;;17.30;13.10;;;;;;;9.46;80.90;100189.83;102838;1257;97747;-82
2023/04/19 08:07:24;;;;;;;15.90;12.70;;;;;;;9.46;80.69;100194.00;102770;1259;108330;-80
2023/04/19 08:09:51;;;;;;;14.20;12.70;;;;;;;9.44;80.66;100192.66;104128;1258;138597;-80
2023/04/19 08:12:15;;;;;;;16.60;11.90;;;;;;;9.42;80.47;100190.81;104219;1261;112276;-82
2023/04/19 08:15:16;;;;;;;14.80;12.30;;;;;;;9.40;80.32;100191.92;104098;1258;138706;-82
2023/04/19 08:17:45;;;;;;;15.60;12.20;;;;;;;9.42;80.28;100189.45;103462;1263;97864;-86
2023/04/19 08:20:13;;;;;;;14.80;11.70;;;;;;;9.45;80.19;100192.29;103702;1261;138700;-85
2023/04/19 08:22:37;;;;;;;15.30;11.70;;;;;;;9.47;79.71;100192.41;104208;1257;95914;-88
2023/04/19 08:25:01;;;;;;;14.40;11.50;;;;;;;9.48;79.51;100190.48;102928;1261;112124;-87
2023/04/19 08:27:47;;;;;;;15.90;11.00;;;;;;;9.47;79.50;100193.80;102731;1259;138530;-84
2023/04/19 08:30:32;;;;;;;15.90;11.60;;;;;;;9.47;79.41;100189.98;103045;1261;98801;-85
2023/04/19 08:32:56;;;;;;;14.50;11.20;;;;;;;9.47;79.28;100190.16;104156;1261;139235;-86
2023/04/19 08:35:41;;;;;;;13.80;11.50;;;;;;;9.53;79.49;100188.77;104245;1260;95937;-82
2023/04/19 08:38:05;;;;;;;14.70;11.80;;;;;;;9.61;79.76;100185.58;104180;1257;139416;-84
2023/04/19 08:40:30;;;;;;;15.10;11.20;;;;;;;9.72;79.71;100184.59;103065;1258;107296;-81
2023/04/19 08:43:16;;;;;;;13.50;11.60;;;;;;;9.80;79.39;100182.41;102859;1261;97968;-81
2023/04/19 08:45:48;;;;;;;13.60;11.20;;;;;;;9.86;79.01;100181.88;103044;1261;138352;-85
2023/04/19 08:48:34;;;;;;;15.80;11.00;;;;;;;9.93;78.79;100184.09;102880;1257;97814;-82
2023/04/19 08:51:12;;;;;;;13.10;11.10;;;;;;;10.00;78.34;100187.02;102762;1258;138864;-82
2023/04/19 08:53:47;;;;;;;20.00;14.10;;;;;;;10.04;77.93;100188.45;103791;1261;107956;-85
2023/04/19 08:56:14;;;;;;;14.70;11.80;;;;;;;10.08;78.03;100190.09;102820;1261;141842;-80
2023/04/19 08:59:15;;;;;;;14.70;10.90;;;;;;;10.16;77.71;100187.73;102815;1261;108197;-82
2023/04/19 09:01:46;;;;;;;12.20;10.40;;;;;;;10.27;77.57;100181.86;102825;1261;139337;-82
2023/04/19 09:04:31;;;;;;;12.20;10.40;;;;;;;10.43;77.41;100185.01;104308;1257;110488;-82
2023/04/19 09:07:00;;;;;;;14.50;11.40;;;;;;;10.54;77.26;100188.27;104246;1258;108350;-81
2023/04/19 09:09:25;;;;;;;12.50;10.10;;;;;;;10.63;76.80;100188.16;103782;1257;138899;-81
2023/04/19 09:12:16;;;;;;;13.20;9.10;;;;;;;10.70;76.35;100188.45;104230;1256;108893;-81
2023/04/19 09:14:45;;;;;;;12.80;9.10;;;;;;;10.75;76.29;100193.98;103894;1257;138724;-82
2023/04/19 09:17:34;;;;;;;13.80;9.30;;;;;;;10.79;75.84;100198.77;104261;1261;110610;-79
2023/04/19 09:20:05;;;;;;;14.90;9.80;;;;;;;10.81;75.61;100200.94;104100;1257;139236;-82
2023/04/19 09:22:40;;;;;;;12.10;9.10;;;;;;;10.83;75.32;100202.11;104280;1257;96090;-85
2023/04/19 09:25:05;;;;;;;11.80;9.00;;;;;;;10.84;75.19;100200.30;104171;1259;107863;-80
2023/04/19 09:27:35;;;;;;;12.00;9.90;;;;;;;10.87;74.82;100206.12;104214;1257;138657;-87
2023/04/19 09:30:00;;;;;;;10.70;9.30;;;;;;;10.89;74.58;100203.61;104255;1257;110531;-77
2023/04/19 09:32:24;;;;;;;11.10;9.50;;;;;;;10.91;74.68;100205.29;103343;1261;138675;-87
2023/04/19 09:34:58;;;;;;;12.10;9.90;;;;;;;10.93;74.67;100207.33;102867;1261;97889;-85
2023/04/19 09:37:22;;;;;;;11.00;8.80;;;;;;;10.93;74.69;100204.85;102909;1258;108897;-79
2023/04/19 09:40:25;;;;;;;12.10;9.30;;;;;;;10.96;74.61;100204.11;102909;1259;97828;-87
2023/04/19 09:42:58;;;;;;;10.60;9.20;;;;;;;10.95;74.14;100202.91;103078;1262;112176;-85
2023/04/19 09:45:46;;;;;;;12.30;8.90;;;;;;;10.94;74.26;100202.57;103116;1261;139273;-85
2023/04/19 09:48:30;;;;;;;11.30;8.90;;;;;;;10.95;74.27;100206.38;103425;1259;96570;-89
2023/04/19 09:51:14;;;;;;;16.60;9.10;;;;;;;10.99;74.14;100204.01;102859;1258;138814;-82
2023/04/19 09:53:59;;;;;;;11.30;8.70;;;;;;;11.02;73.93;100206.50;103043;1263;98575;-83
2023/04/19 09:56:44;;;;;;;14.40;9.60;;;;;;;11.01;73.70;100206.86;102892;1261;138610;-86
2023/04/19 09:59:28;;;;;;;10.70;8.70;;;;;;;11.03;73.61;100206.11;104166;1257;106239;-83
2023/04/19 10:01:56;;;;;;;12.60;8.80;;;;;;;11.00;73.14;100206.40;102846;1262;139402;-80
2023/04/19 10:04:42;;;;;;;12.90;9.10;;;;;;;10.95;73.10;100206.56;102875;1257;109053;-85
2023/04/19 10:07:36;;;;;;;12.40;9.10;;;;;;;10.86;72.80;100211.01;104217;1257;95693;-80
2023/04/19 10:10:05;;;;;;;11.90;8.80;;;;;;;10.80;73.00;100213.50;103643;1261;111507;-80
2023/04/19 10:12:55;;;;;;;10.50;8.40;;;;;;;10.76;73.11;100213.78;103120;1261;106941;-81
2023/04/19 10:15:43;;;;;;;11.70;9.50;;;;;;;10.74;73.28;100212.83;102783;1260;138669;-81
2023/04/19 10:19:05;;;;;;;13.90;9.00;;;;;;;10.73;73.23;100206.41;102827;1261;110402;-80
2023/04/19 10:21:42;;;;;;;12.80;9.00;;;;;;;10.72;73.10;100203.48;102686;1261;138644;-80
2023/04/19 10:24:11;;;;;;;11.00;8.30;;;;;;;10.72;73.14;100203.83;102876;1261;112240;-82
2023/04/19 10:27:11;;;;;;;12.40;9.40;;;;;;;10.74;73.23;100209.70;102776;1262;138847;-79
2023/04/19 10:29:56;;;;;;;11.90;9.50;;;;;;;10.73;73.31;100207.45;103825;1260;98357;-80
2023/04/19 10:32:36;;;;;;;11.60;9.00;;;;;;;10.72;73.44;100209.40;103147;1263;138577;-81
2023/04/19 10:35:19;;;;;;;11.20;9.50;;;;;;;10.70;73.44;100214.34;102874;1258;97891;-80
2023/04/19 10:38:06;;;;;;;11.10;8.80;;;;;;;10.67;73.38;100213.22;102820;1258;138732;-85
2023/04/19 10:41:00;;;;;;;12.00;8.40;;;;;;;10.66;73.46;100213.63;102867;1263;108679;-82
2023/04/19 10:43:46;;;;;;;11.60;9.20;;;;;;;10.62;73.44;100219.49;103129;1258;139726;-84
2023/04/19 10:46:39;;;;;;;13.90;10.00;;;;;;;10.58;73.30;100221.67;103298;1261;107941;-83
2023/04/19 10:49:23;;;;;;;11.70;8.80;;;;;;;10.58;73.50;100220.66;103544;1258;97802;-79
2023/04/19 10:52:28;;;;;;;16.30;9.10;;;;;;;10.57;73.48;100214.75;103038;1261;113214;-74
2023/04/19 10:55:07;;;;;;;12.10;8.80;;;;;;;10.56;73.52;100216.00;102896;1258;108072;-78
2023/04/19 10:58:05;;;;;;;11.90;8.70;;;;;;;10.55;73.46;100217.97;103997;1257;139141;-70
2023/04/19 11:00:48;;;;;;;;;;;;;;;10.57;73.44;100220.52;102825;1263;110270;-72
2023/04/19 11:03:52;;;;;;;12.30;9.50;;;;;;;10.58;73.34;100223.06;102722;1262;124976;-70
2023/04/19 11:06:37;;;;;;;11.70;9.00;;;;;;;10.61;73.35;100221.63;102786;1262;112064;-69
2023/04/19 11:09:04;;;;;;;11.40;8.90;;;;;;;10.64;73.42;100223.97;102629;1260;139505;-72
2023/04/19 11:11:27;;;;;;;;;;;;;;;10.68;73.52;100225.91;102816;1261;97858;-70
2023/04/19 11:14:07;;;;;;;17.40;11.90;;;;;;;10.73;73.35;100227.13;102620;1257;126796;-72
2023/04/19 11:16:30;;;;;;;11.30;8.80;;;;;;;10.80;73.21;100227.06;102789;1257;97673;-72
2023/04/19 11:19:13;;;;;;;12.40;8.50;;;;;;;10.89;72.83;100227.09;102789;1260;113254;-71
2023/04/19 11:21:47;;;;;;;;;;;;;;;10.97;72.76;100227.55;102659;1257;138702;-71
2023/04/19 11:24:22;;;;;;;10.80;8.60;;;;;;;11.01;72.74;100227.39;102769;1263;97807;-68
2023/04/19 11:26:46;;;;;;;10.50;8.10;;;;;;;11.05;72.83;100226.23;102674;1271;138553;-72
2023/04/19 11:29:10;;;;;;;16.90;8.60;;;;;;;11.11;73.00;100225.27;102785;1263;97844;-70
2023/04/19 11:31:36;;;;;;;;;;;;;;;11.17;73.08;100227.38;102788;1257;110929;-71
2023/04/19 11:34:23;;;;;;;11.60;8.80;;;;;;;11.23;72.96;100225.42;102739;1271;109785;-72
2023/04/19 11:36:51;;;;;;;11.70;8.90;;;;;;;11.32;72.89;100223.88;102833;1262;97820;-71
2023/04/19 11:39:15;;;;;;;12.20;8.50;;;;;;;11.40;72.73;100222.89;102681;1258;138626;-71
2023/04/19 11:41:39;;;;;;;11.80;9.90;;;;;;;11.47;72.43;100224.70;102764;1260;97802;-72
2023/04/19 11:44:03;;;;;;;10.80;8.90;;;;;;;11.55;71.96;100225.16;102633;1260;139256;-70
2023/04/19 11:46:26;;;;;;;13.30;8.60;;;;;;;11.68;71.83;100222.05;102722;1260;108371;-72